Time;durP1;ratioP1;P1;durP2;ratioP2;P2;SDS_P1;SDS_P2;PMS_P1;PMS_P2;Temp;Humidity;BMP_temperature;BMP_pressure;BME280_temperature;BME280_humidity;BME280_pressure;Samples;Min_cycle;Max_cycle;Signal;HPM_P1;HPM_P2
2022/10/10 00:00:36;;;;;;;5.07;4.35;;;8.40;99.90;;;;;;5091606;28;20035;-70
2022/10/10 00:03:02;;;;;;;6.15;4.80;;;8.40;99.90;;;;;;5094805;28;20059;-70
2022/10/10 00:05:28;;;;;;;8.88;4.50;;;8.40;99.90;;;;;;5095488;28;20044;-70
2022/10/10 00:07:54;;;;;;;8.98;5.07;;;8.40;99.90;;;;;;5095265;28;20524;-70
2022/10/10 00:10:19;;;;;;;8.10;4.90;;;8.30;99.90;;;;;;5094178;28;20035;-70
2022/10/10 00:12:45;;;;;;;8.35;4.70;;;8.20;99.90;;;;;;5095184;28;20405;-70
2022/10/10 00:15:12;;;;;;;9.20;5.43;;;8.20;99.90;;;;;;5093569;28;20472;-69
2022/10/10 00:17:39;;;;;;;5.75;4.50;;;8.20;99.90;;;;;;5094859;28;20041;-70
2022/10/10 00:20:05;;;;;;;7.35;4.97;;;8.10;99.90;;;;;;5094614;28;20048;-70
2022/10/10 00:22:31;;;;;;;5.40;4.65;;;8.20;99.90;;;;;;5094670;28;20036;-70
2022/10/10 00:24:57;;;;;;;10.18;4.97;;;8.20;99.90;;;;;;5095197;28;20557;-70
2022/10/10 00:27:22;;;;;;;7.10;5.28;;;8.10;99.90;;;;;;5093926;28;20513;-70
2022/10/10 00:29:48;;;;;;;8.13;4.40;;;8.10;99.90;;;;;;5094935;28;20669;-70
2022/10/10 00:32:13;;;;;;;5.22;4.40;;;8.10;99.90;;;;;;5094733;28;20036;-69
2022/10/10 00:34:39;;;;;;;8.60;6.05;;;8.00;99.90;;;;;;5094570;28;20047;-69
2022/10/10 00:37:05;;;;;;;9.80;5.13;;;8.00;99.90;;;;;;5076473;28;20047;-69
2022/10/10 00:39:30;;;;;;;5.85;4.28;;;8.00;99.90;;;;;;5094895;28;20089;-70
2022/10/10 00:41:56;;;;;;;7.18;4.32;;;8.00;99.90;;;;;;5093339;28;20050;-70
2022/10/10 00:44:21;;;;;;;6.28;5.10;;;7.90;99.90;;;;;;5076221;28;20401;-70
2022/10/10 00:46:47;;;;;;;9.25;4.88;;;8.00;99.90;;;;;;5093404;28;20035;-70
2022/10/10 00:49:20;;;;;;;8.43;5.22;;;7.90;99.90;;;;;;5093309;28;20036;-70
2022/10/10 00:51:47;;;;;;;10.07;5.05;;;7.90;99.90;;;;;;5094550;28;20386;-69
2022/10/10 00:54:16;;;;;;;8.18;5.82;;;7.90;99.90;;;;;;5093194;28;20028;-70
2022/10/10 00:56:58;;;;;;;7.82;5.05;;;8.00;99.90;;;;;;5094437;28;20042;-70
2022/10/10 00:59:25;;;;;;;10.13;5.03;;;7.90;99.90;;;;;;5094369;28;20122;-70
2022/10/10 01:01:51;;;;;;;8.75;5.20;;;7.80;99.90;;;;;;5094431;28;20032;-70
2022/10/10 01:04:29;;;;;;;7.40;5.32;;;7.80;99.90;;;;;;5092623;28;20086;-70
2022/10/10 01:06:55;;;;;;;7.15;4.82;;;7.80;99.90;;;;;;5094268;28;20532;-70
2022/10/10 01:09:21;;;;;;;8.88;5.20;;;7.70;99.90;;;;;;5092890;28;20062;-70
2022/10/10 01:11:54;;;;;;;9.18;5.00;;;7.70;99.90;;;;;;5093204;28;20044;-70
2022/10/10 01:14:35;;;;;;;10.88;5.95;;;7.70;99.90;;;;;;5092551;28;20431;-70
2022/10/10 01:17:06;;;;;;;8.02;5.13;;;7.80;99.90;;;;;;5093818;28;20485;-70
2022/10/10 01:19:52;;;;;;;8.98;5.32;;;7.70;99.90;;;;;;5093645;28;20067;-69
2022/10/10 01:22:53;;;;;;;8.20;5.45;;;7.70;99.90;;;;;;5076084;28;20044;-69
2022/10/10 01:25:28;;;;;;;7.20;5.20;;;7.80;99.90;;;;;;5094173;28;20036;-70
2022/10/10 01:28:02;;;;;;;9.52;5.22;;;7.70;99.90;;;;;;5092310;28;20048;-70
2022/10/10 01:30:29;;;;;;;7.93;5.28;;;7.70;99.90;;;;;;5093835;28;20046;-70
2022/10/10 01:33:17;;;;;;;7.72;5.57;;;7.80;99.90;;;;;;5093452;28;20086;-69
2022/10/10 01:35:53;;;;;;;11.02;6.75;;;7.80;99.90;;;;;;5092439;28;20046;-69
2022/10/10 01:38:35;;;;;;;10.13;5.25;;;7.70;99.90;;;;;;5093638;28;20154;-70
2022/10/10 01:41:14;;;;;;;7.50;5.30;;;7.90;99.90;;;;;;5093514;28;20518;-69
2022/10/10 01:43:40;;;;;;;9.20;5.60;;;7.80;99.90;;;;;;5093251;28;20039;-70
2022/10/10 01:46:15;;;;;;;7.82;6.10;;;7.70;99.90;;;;;;5093727;28;20048;-70
2022/10/10 01:48:45;;;;;;;8.02;5.03;;;7.80;99.90;;;;;;5093251;28;20040;-69
2022/10/10 01:51:18;;;;;;;6.47;4.93;;;7.80;99.90;;;;;;5075453;28;20568;-70
2022/10/10 01:53:58;;;;;;;6.65;5.10;;;7.80;99.90;;;;;;5075001;28;20109;-70
2022/10/10 01:56:41;;;;;;;10.63;6.00;;;7.80;99.90;;;;;;5091908;28;20044;-70
2022/10/10 01:59:16;;;;;;;7.38;5.07;;;7.80;99.90;;;;;;5092148;28;20054;-70
2022/10/10 02:01:53;;;;;;;6.68;4.97;;;7.70;99.90;;;;;;5093358;28;20044;-70
2022/10/10 02:05:03;;;;;;;6.82;5.35;;;7.70;99.90;;;;;;5091586;28;20044;-69
2022/10/10 02:07:48;;;;;;;7.68;5.45;;;7.70;99.90;;;;;;5090080;28;20052;-70
2022/10/10 02:10:20;;;;;;;9.73;5.78;;;7.80;99.90;;;;;;5093140;28;20092;-70
2022/10/10 02:12:46;;;;;;;8.57;5.75;;;7.80;99.90;;;;;;5091463;28;20048;-70
2022/10/10 02:15:15;;;;;;;8.68;5.28;;;7.70;99.90;;;;;;5092816;28;20036;-70
2022/10/10 02:17:44;;;;;;;7.10;5.78;;;7.70;99.90;;;;;;5092721;28;20032;-70
2022/10/10 02:20:12;;;;;;;6.85;5.03;;;7.70;99.90;;;;;;5093021;28;20071;-69
2022/10/10 02:22:40;;;;;;;10.32;5.43;;;7.70;99.90;;;;;;5092620;28;20050;-70
2022/10/10 02:25:06;;;;;;;8.38;5.32;;;7.60;99.90;;;;;;5092403;28;20044;-70
2022/10/10 02:27:58;;;;;;;9.75;5.18;;;7.70;99.90;;;;;;5092571;28;20036;-70
2022/10/10 02:30:23;;;;;;;8.88;5.18;;;7.70;99.90;;;;;;5092983;28;20032;-70
2022/10/10 02:32:55;;;;;;;9.15;4.88;;;7.70;99.90;;;;;;5091583;28;20048;-70
2022/10/10 02:35:29;;;;;;;7.10;5.95;;;7.70;99.90;;;;;;5092566;28;20549;-70
2022/10/10 02:37:56;;;;;;;7.88;5.78;;;7.60;99.90;;;;;;5091013;28;20039;-70
2022/10/10 02:40:26;;;;;;;6.65;4.97;;;7.60;99.90;;;;;;5092741;28;20093;-70
2022/10/10 02:42:53;;;;;;;7.60;5.38;;;7.70;99.90;;;;;;5092387;28;20066;-70
2022/10/10 02:45:20;;;;;;;8.35;5.70;;;7.60;99.90;;;;;;5092586;28;20040;-70
2022/10/10 02:47:46;;;;;;;11.45;6.03;;;7.60;99.90;;;;;;5091200;28;20408;-70
2022/10/10 02:50:11;;;;;;;7.65;5.45;;;7.50;99.90;;;;;;5092393;28;20127;-70
2022/10/10 02:52:37;;;;;;;11.23;5.80;;;7.60;99.90;;;;;;5090769;28;20051;-70
2022/10/10 02:55:03;;;;;;;8.02;5.68;;;7.70;99.90;;;;;;5092369;28;20032;-70
2022/10/10 02:57:29;;;;;;;10.07;6.00;;;7.70;99.90;;;;;;5090855;28;20036;-70
2022/10/10 02:59:55;;;;;;;6.38;4.85;;;7.60;99.90;;;;;;5092269;28;20070;-70
2022/10/10 03:02:20;;;;;;;9.55;5.75;;;7.60;99.90;;;;;;5092050;28;20036;-68
2022/10/10 03:04:46;;;;;;;8.38;5.65;;;7.60;99.90;;;;;;5092513;28;20079;-70
2022/10/10 03:07:11;;;;;;;8.30;5.93;;;7.70;99.90;;;;;;5092020;28;20040;-70
2022/10/10 03:09:37;;;;;;;7.50;5.40;;;7.80;99.90;;;;;;5092231;28;20039;-70
2022/10/10 03:12:03;;;;;;;7.95;5.32;;;7.70;99.90;;;;;;5092150;28;20043;-69
2022/10/10 03:14:28;;;;;;;10.30;5.65;;;7.60;99.90;;;;;;5091687;28;20176;-69
2022/10/10 03:16:54;;;;;;;7.45;5.35;;;7.70;99.90;;;;;;5091950;28;20119;-70
2022/10/10 03:19:19;;;;;;;8.73;5.80;;;7.80;99.90;;;;;;5112352;22;20126;-73
2022/10/10 03:21:45;;;;;;;7.75;5.50;;;7.80;99.90;;;;;;5091812;28;20206;-73
2022/10/10 03:24:10;;;;;;;8.50;5.72;;;7.70;99.90;;;;;;5091736;28;20028;-73
2022/10/10 03:26:36;;;;;;;8.75;5.25;;;7.70;99.90;;;;;;5091820;28;20048;-73
2022/10/10 03:29:03;;;;;;;9.20;5.80;;;7.70;99.90;;;;;;5090494;28;20036;-73
2022/10/10 03:31:28;;;;;;;8.43;5.45;;;7.70;99.90;;;;;;5091359;28;20036;-73
2022/10/10 03:33:54;;;;;;;9.73;5.80;;;7.60;99.90;;;;;;5090175;28;20085;-73
2022/10/10 03:36:20;;;;;;;9.73;5.53;;;7.80;99.90;;;;;;5092279;28;20044;-73
2022/10/10 03:38:45;;;;;;;5.88;5.28;;;7.70;99.90;;;;;;5094890;28;20040;-73
2022/10/10 03:41:11;;;;;;;7.47;5.40;;;7.70;99.90;;;;;;5096069;28;20119;-73
2022/10/10 03:43:37;;;;;;;8.82;5.68;;;7.70;99.90;;;;;;5095635;28;20497;-73
2022/10/10 03:46:03;;;;;;;11.30;5.93;;;7.70;99.90;;;;;;5094832;28;20638;-73
2022/10/10 03:48:28;;;;;;;6.43;4.95;;;7.70;99.90;;;;;;5094450;28;20048;-73
2022/10/10 03:50:54;;;;;;;5.95;5.35;;;7.80;99.90;;;;;;5095711;28;20040;-73
2022/10/10 03:53:19;;;;;;;7.03;5.30;;;7.70;99.90;;;;;;5094945;28;20047;-73
2022/10/10 03:55:45;;;;;;;7.18;5.22;;;7.70;99.90;;;;;;5095540;28;20051;-73
2022/10/10 03:58:11;;;;;;;8.77;6.30;;;7.60;99.90;;;;;;5094286;28;20028;-73
2022/10/10 04:00:37;;;;;;;7.25;5.45;;;7.70;99.90;;;;;;5094188;28;20134;-72
2022/10/10 04:03:05;;;;;;;8.45;6.03;;;7.60;99.90;;;;;;5095108;28;20040;-71
2022/10/10 04:05:35;;;;;;;6.20;5.57;;;7.60;99.90;;;;;;5095457;28;20032;-72
2022/10/10 04:08:01;;;;;;;11.38;5.63;;;7.70;99.90;;;;;;5095669;28;20036;-72
2022/10/10 04:10:27;;;;;;;9.80;5.95;;;7.60;99.90;;;;;;5093786;28;20044;-72
2022/10/10 04:12:52;;;;;;;9.52;6.13;;;7.60;99.90;;;;;;5092549;28;20043;-72
2022/10/10 04:15:18;;;;;;;11.07;5.78;;;7.50;99.90;;;;;;5094804;28;20517;-72
2022/10/10 04:17:43;;;;;;;8.25;5.50;;;7.60;99.90;;;;;;5094865;28;20036;-72
2022/10/10 04:20:09;;;;;;;9.93;6.38;;;7.60;99.90;;;;;;5093736;28;20043;-72
2022/10/10 04:22:35;;;;;;;7.20;6.03;;;7.50;99.90;;;;;;5093524;28;20090;-72
2022/10/10 04:25:00;;;;;;;7.75;6.15;;;7.50;99.90;;;;;;5095017;28;20096;-72
2022/10/10 04:27:26;;;;;;;8.80;6.30;;;7.40;99.90;;;;;;5093639;28;20048;-72
2022/10/10 04:29:51;;;;;;;9.07;6.03;;;7.50;99.90;;;;;;5094783;28;20044;-72
2022/10/10 04:32:17;;;;;;;7.03;5.85;;;7.50;99.90;;;;;;5094602;28;20040;-72
2022/10/10 04:34:42;;;;;;;8.40;5.55;;;7.50;99.90;;;;;;5093538;28;20529;-72
2022/10/10 04:37:08;;;;;;;9.70;5.43;;;7.40;99.90;;;;;;5094589;28;20081;-72
2022/10/10 04:39:34;;;;;;;7.82;5.85;;;7.40;99.90;;;;;;5093322;28;20035;-72
2022/10/10 04:41:59;;;;;;;9.02;5.95;;;7.50;99.90;;;;;;5093573;28;20062;-73
2022/10/10 04:44:25;;;;;;;7.90;6.28;;;7.30;99.90;;;;;;5094418;28;20055;-73
2022/10/10 04:46:50;;;;;;;8.15;6.05;;;7.40;99.90;;;;;;5093177;28;20071;-73
2022/10/10 04:49:16;;;;;;;6.20;5.47;;;7.40;99.90;;;;;;5094514;28;20119;-73
2022/10/10 04:51:41;;;;;;;11.25;6.88;;;7.30;99.90;;;;;;5094612;28;20028;-72
2022/10/10 04:54:07;;;;;;;11.18;6.13;;;7.30;99.90;;;;;;5094214;28;20047;-72
2022/10/10 04:56:33;;;;;;;7.97;6.03;;;7.30;99.90;;;;;;5094461;28;20119;-71
2022/10/10 04:58:58;;;;;;;9.13;5.53;;;7.40;99.90;;;;;;5094252;28;20031;-72
2022/10/10 05:01:24;;;;;;;8.45;6.00;;;7.20;99.90;;;;;;5094293;28;20040;-72
2022/10/10 05:03:49;;;;;;;10.23;6.88;;;7.20;99.90;;;;;;5093967;28;20400;-71
2022/10/10 05:06:15;;;;;;;9.63;6.35;;;7.20;99.90;;;;;;5094260;28;20048;-72
2022/10/10 05:08:40;;;;;;;8.82;5.75;;;7.30;99.90;;;;;;5094012;28;20544;-72
2022/10/10 05:11:06;;;;;;;8.77;6.15;;;7.30;99.90;;;;;;5094136;28;20601;-72
2022/10/10 05:13:31;;;;;;;11.13;6.38;;;7.30;99.90;;;;;;5093718;28;20040;-72
2022/10/10 05:15:57;;;;;;;13.75;6.75;;;7.20;99.90;;;;;;5093987;28;20044;-72
2022/10/10 05:18:23;;;;;;;10.73;7.25;;;7.20;99.90;;;;;;5093656;28;20040;-73
2022/10/10 05:20:49;;;;;;;11.18;6.35;;;7.20;99.90;;;;;;5093777;28;20088;-72
2022/10/10 05:23:15;;;;;;;9.77;6.40;;;7.10;99.90;;;;;;5093199;28;20035;-72
2022/10/10 05:25:46;;;;;;;13.98;7.13;;;7.20;99.90;;;;;;5093637;28;20093;-72
2022/10/10 05:28:11;;;;;;;8.60;6.40;;;7.20;99.90;;;;;;5092749;28;20418;-72
2022/10/10 05:30:37;;;;;;;10.20;5.82;;;7.30;99.90;;;;;;5093746;28;20046;-72
2022/10/10 05:33:02;;;;;;;8.88;7.00;;;7.30;99.90;;;;;;5093474;28;20044;-72
2022/10/10 05:35:28;;;;;;;11.15;6.45;;;7.10;99.90;;;;;;5093702;28;20044;-72
2022/10/10 05:37:54;;;;;;;11.00;6.85;;;7.20;99.90;;;;;;5093271;28;20064;-74
2022/10/10 05:40:19;;;;;;;9.43;7.10;;;7.20;99.90;;;;;;5093724;28;20040;-74
2022/10/10 05:42:45;;;;;;;9.15;6.70;;;7.10;99.90;;;;;;5093306;28;20044;-73
2022/10/10 05:45:11;;;;;;;10.23;6.72;;;7.10;99.90;;;;;;5093471;28;20126;-73
2022/10/10 05:47:36;;;;;;;9.80;6.30;;;7.10;99.90;;;;;;5093489;28;20115;-74
2022/10/10 05:50:02;;;;;;;8.45;6.57;;;7.20;99.90;;;;;;5093426;28;20405;-73
2022/10/10 05:52:28;;;;;;;13.32;7.10;;;7.10;99.90;;;;;;5093128;28;20119;-73
2022/10/10 05:54:53;;;;;;;12.20;7.47;;;7.10;99.90;;;;;;5093423;28;20119;-73
2022/10/10 05:57:19;;;;;;;13.98;7.90;;;7.20;99.90;;;;;;5091975;28;20519;-73
2022/10/10 05:59:45;;;;;;;8.85;6.45;;;7.10;99.90;;;;;;5092493;28;20032;-73
2022/10/10 06:02:12;;;;;;;11.30;6.80;;;7.10;99.90;;;;;;5092899;28;20490;-74
2022/10/10 06:04:38;;;;;;;9.77;7.15;;;6.90;99.90;;;;;;5093122;28;20115;-73
2022/10/10 06:07:03;;;;;;;13.15;7.50;;;7.10;99.90;;;;;;5093078;28;20161;-73
2022/10/10 06:09:29;;;;;;;10.00;7.13;;;6.90;99.90;;;;;;5092991;28;20386;-73
2022/10/10 06:11:54;;;;;;;9.57;6.97;;;7.10;99.90;;;;;;5092881;28;20043;-74
2022/10/10 06:14:20;;;;;;;11.57;7.05;;;7.10;99.90;;;;;;5091310;28;20047;-73
2022/10/10 06:16:46;;;;;;;13.43;7.72;;;7.00;99.90;;;;;;5092879;28;20531;-73
2022/10/10 06:19:11;;;;;;;10.40;7.38;;;7.10;99.90;;;;;;5090642;28;20486;-73
2022/10/10 06:21:37;;;;;;;12.80;7.90;;;7.20;99.90;;;;;;5091929;28;20127;-74
2022/10/10 06:24:02;;;;;;;14.32;7.28;;;7.10;99.90;;;;;;5091792;28;20078;-73
2022/10/10 06:26:28;;;;;;;15.00;8.20;;;7.10;99.90;;;;;;5091958;28;20119;-73
2022/10/10 06:28:54;;;;;;;11.18;7.75;;;7.30;99.90;;;;;;5091143;28;20048;-73
2022/10/10 06:31:19;;;;;;;17.02;8.27;;;7.30;99.90;;;;;;5090702;28;20090;-73
2022/10/10 06:33:46;;;;;;;13.88;8.00;;;7.30;99.90;;;;;;5091494;28;20092;-74
2022/10/10 06:36:13;;;;;;;13.60;8.30;;;7.30;99.90;;;;;;5091634;28;20083;-73
2022/10/10 06:38:41;;;;;;;17.45;8.45;;;7.30;99.90;;;;;;5091752;28;20028;-73
2022/10/10 06:41:07;;;;;;;11.43;7.45;;;7.40;99.90;;;;;;5091620;28;20542;-73
2022/10/10 06:43:33;;;;;;;12.10;7.82;;;7.60;99.90;;;;;;5091384;28;20036;-73
2022/10/10 06:46:00;;;;;;;17.05;8.13;;;7.50;99.90;;;;;;5091848;28;20042;-73
2022/10/10 06:48:26;;;;;;;10.80;7.95;;;7.60;99.90;;;;;;5091618;28;20054;-73
2022/10/10 06:51:00;;;;;;;13.80;7.97;;;7.80;99.90;;;;;;5091525;28;20093;-73
2022/10/10 06:53:26;;;;;;;12.02;8.23;;;7.80;99.90;;;;;;5091213;28;20039;-73
2022/10/10 06:55:54;;;;;;;12.20;7.93;;;8.10;99.90;;;;;;5091438;28;20124;-74
2022/10/10 06:58:20;;;;;;;11.50;7.55;;;8.30;99.90;;;;;;5091173;28;20067;-73
2022/10/10 07:00:53;;;;;;;13.95;8.95;;;8.40;99.90;;;;;;5091407;28;20398;-74
2022/10/10 07:03:19;;;;;;;9.75;7.60;;;8.60;99.90;;;;;;5091181;28;20119;-73
2022/10/10 07:05:52;;;;;;;10.65;7.57;;;8.80;99.90;;;;;;5091029;28;20082;-74
2022/10/10 07:08:19;;;;;;;12.13;7.72;;;9.10;99.90;;;;;;5091193;28;20044;-73
2022/10/10 07:10:45;;;;;;;10.55;7.45;;;9.30;99.90;;;;;;5091018;28;20486;-73
2022/10/10 07:13:10;;;;;;;10.93;7.28;;;9.50;99.90;;;;;;5091017;28;20032;-74
2022/10/10 07:15:36;;;;;;;9.25;7.20;;;9.70;99.90;;;;;;5091249;28;20529;-73
2022/10/10 07:18:02;;;;;;;9.80;7.25;;;9.80;99.90;;;;;;5054301;28;1015595;-74
2022/10/10 07:20:28;;;;;;;11.35;7.53;;;9.90;99.90;;;;;;5092068;28;20054;-73
2022/10/10 07:22:53;;;;;;;15.98;8.32;;;9.80;99.90;;;;;;5091569;28;20028;-73
2022/10/10 07:25:19;;;;;;;13.68;8.75;;;10.00;99.90;;;;;;5091887;28;20043;-74
2022/10/10 07:27:44;;;;;;;16.38;8.23;;;10.00;99.90;;;;;;5092060;28;20047;-73
2022/10/10 07:30:10;;;;;;;11.27;8.00;;;10.20;99.90;;;;;;5091920;28;20051;-73
2022/10/10 07:32:36;;;;;;;12.27;7.30;;;10.30;99.90;;;;;;5091604;28;20036;-73
2022/10/10 07:35:01;;;;;;;11.50;7.63;;;10.60;99.90;;;;;;5090355;28;20050;-73
2022/10/10 07:37:27;;;;;;;12.40;8.15;;;10.80;99.90;;;;;;5091650;28;20405;-74
2022/10/10 07:39:53;;;;;;;10.77;7.13;;;10.80;99.90;;;;;;5091502;28;20036;-73
2022/10/10 07:42:19;;;;;;;13.10;7.75;;;10.90;99.90;;;;;;5091655;28;20036;-73
2022/10/10 07:44:44;;;;;;;10.48;7.22;;;11.00;99.90;;;;;;5073386;28;20058;-74
2022/10/10 07:47:10;;;;;;;12.07;7.68;;;11.20;99.90;;;;;;5091651;28;20047;-73
2022/10/10 07:49:36;;;;;;;9.35;6.82;;;11.40;99.90;;;;;;5090124;28;20040;-74
2022/10/10 07:52:01;;;;;;;11.30;7.93;;;11.60;99.90;;;;;;5091420;28;20068;-73
2022/10/10 07:54:28;;;;;;;11.20;7.38;;;11.70;99.90;;;;;;5091099;28;20504;-73
2022/10/10 07:56:53;;;;;;;10.05;6.70;;;11.70;99.90;;;;;;5091431;28;20044;-74
2022/10/10 07:59:19;;;;;;;12.88;7.07;;;11.90;99.90;;;;;;5091588;28;20036;-73
2022/10/10 08:01:45;;;;;;;12.48;7.78;;;11.80;99.90;;;;;;5091591;28;20036;-73
2022/10/10 08:04:10;;;;;;;10.45;7.07;;;11.70;99.90;;;;;;5091183;28;20105;-73
2022/10/10 08:06:36;;;;;;;8.85;7.47;;;11.60;99.90;;;;;;5090262;28;20035;-74
2022/10/10 08:09:01;;;;;;;11.25;7.35;;;11.70;99.90;;;;;;5091185;28;20032;-74
2022/10/10 08:11:27;;;;;;;11.40;7.30;;;11.90;99.90;;;;;;5091593;28;20060;-74
2022/10/10 08:13:52;;;;;;;11.57;7.70;;;12.20;99.90;;;;;;5091193;28;20032;-74
2022/10/10 08:16:19;;;;;;;14.13;7.55;;;12.40;99.90;;;;;;5091402;28;20044;-74
2022/10/10 08:18:44;;;;;;;11.75;7.63;;;12.60;99.90;;;;;;5091174;28;20044;-74
2022/10/10 08:21:12;;;;;;;11.18;6.70;;;12.60;99.90;;;;;;5091368;28;20115;-73
2022/10/10 08:23:37;;;;;;;11.23;6.40;;;12.50;99.90;;;;;;5092540;28;20043;-74
2022/10/10 08:26:06;;;;;;;12.90;7.32;;;12.60;99.90;;;;;;5095358;28;20509;-74
2022/10/10 08:28:33;;;;;;;14.23;7.35;;;12.80;99.90;;;;;;5095089;28;20075;-73
2022/10/10 08:30:58;;;;;;;11.55;7.57;;;12.70;99.90;;;;;;5095023;28;20032;-73
2022/10/10 08:33:27;;;;;;;9.85;6.90;;;12.70;99.90;;;;;;5093249;28;20040;-74
2022/10/10 08:35:54;;;;;;;9.23;7.47;;;12.70;99.90;;;;;;5094903;28;20040;-74
2022/10/10 08:38:19;;;;;;;12.00;7.13;;;12.90;99.90;;;;;;5094719;28;20036;-73
2022/10/10 08:40:48;;;;;;;15.00;7.68;;;12.90;99.90;;;;;;5093644;28;20121;-74
2022/10/10 08:43:26;;;;;;;11.75;7.38;;;12.90;99.90;;;;;;5094571;28;20040;-74
2022/10/10 08:45:56;;;;;;;16.77;8.27;;;12.90;99.90;;;;;;5094815;28;20044;-74
2022/10/10 08:48:26;;;;;;;9.43;7.78;;;12.80;99.90;;;;;;5094534;28;20404;-74
2022/10/10 08:51:00;;;;;;;13.02;8.60;;;12.80;99.90;;;;;;5094570;28;20036;-73
2022/10/10 08:53:42;;;;;;;11.32;7.55;;;12.80;99.90;;;;;;5093008;28;20040;-74
2022/10/10 08:56:15;;;;;;;13.45;8.13;;;12.70;99.90;;;;;;5093336;28;20126;-73
2022/10/10 08:58:54;;;;;;;11.45;8.88;;;12.80;99.90;;;;;;5094276;28;20039;-74
2022/10/10 09:01:24;;;;;;;21.63;7.90;;;12.90;99.90;;;;;;5093087;28;20044;-75
2022/10/10 09:03:56;;;;;;;12.77;7.90;;;13.00;99.90;;;;;;5092808;28;20043;-74
2022/10/10 09:06:26;;;;;;;11.18;8.02;;;13.10;99.90;;;;;;5094412;28;20113;-74
2022/10/10 09:09:16;;;;;;;12.43;7.97;;;13.30;99.90;;;;;;5092995;28;20497;-74
2022/10/10 09:11:59;;;;;;;11.45;8.10;;;13.30;99.90;;;;;;5094177;28;20521;-74
2022/10/10 09:14:37;;;;;;;14.02;8.35;;;13.30;99.90;;;;;;5093898;28;20520;-73
2022/10/10 09:17:21;;;;;;;11.73;7.93;;;13.40;99.90;;;;;;5094234;28;20040;-73
2022/10/10 09:19:58;;;;;;;12.98;7.68;;;13.30;99.90;;;;;;5094119;28;20093;-73
2022/10/10 09:22:32;;;;;;;12.82;8.23;;;13.20;99.90;;;;;;5092442;28;20048;-74
2022/10/10 09:25:23;;;;;;;14.32;7.25;;;13.20;99.90;;;;;;5094129;28;20050;-73
2022/10/10 09:27:59;;;;;;;10.38;7.93;;;13.20;99.90;;;;;;5093847;28;20040;-73
2022/10/10 09:30:28;;;;;;;13.32;8.10;;;13.30;99.90;;;;;;5092485;28;20076;-73
2022/10/10 09:33:37;;;;;;;14.73;7.70;;;13.30;99.90;;;;;;5092235;28;20127;-73
2022/10/10 09:36:09;;;;;;;12.10;7.88;;;13.40;99.90;;;;;;5093484;28;20036;-73
2022/10/10 09:38:46;;;;;;;11.48;7.50;;;13.50;99.90;;;;;;5093560;28;20040;-73
2022/10/10 09:41:30;;;;;;;14.45;8.30;;;13.60;99.90;;;;;;5092283;28;20119;-73
2022/10/10 09:43:57;;;;;;;13.85;7.75;;;13.60;99.90;;;;;;5092225;28;20081;-73
2022/10/10 09:46:23;;;;;;;12.45;8.23;;;13.60;99.90;;;;;;5093553;28;20039;-73
2022/10/10 09:48:50;;;;;;;11.70;7.45;;;13.70;99.90;;;;;;5093546;28;20040;-73
2022/10/10 09:51:17;;;;;;;12.52;8.18;;;13.80;99.90;;;;;;5093449;28;20068;-73
2022/10/10 09:53:45;;;;;;;13.00;8.63;;;13.80;99.90;;;;;;5091945;28;20044;-74
2022/10/10 09:56:21;;;;;;;10.32;8.07;;;13.80;99.90;;;;;;5092192;28;20446;-73
2022/10/10 09:58:52;;;;;;;14.40;8.25;;;13.80;99.90;;;;;;5075369;28;20040;-73
2022/10/10 10:01:30;;;;;;;14.45;7.97;;;13.80;99.90;;;;;;5092993;28;20037;-71
2022/10/10 10:04:17;;;;;;;11.60;7.95;;;13.90;99.90;;;;;;5092136;28;20073;-71
2022/10/10 10:06:49;;;;;;;11.43;7.90;;;14.00;99.90;;;;;;5092970;28;20235;-71
2022/10/10 10:09:17;;;;;;;13.98;8.13;;;14.10;99.90;;;;;;5091787;28;20169;-71
2022/10/10 10:11:45;;;;;;;9.85;7.38;;;14.10;99.90;;;;;;5092566;28;20071;-72
2022/10/10 10:14:21;;;;;;;13.55;8.25;;;14.00;99.90;;;;;;5091008;28;20571;-72
2022/10/10 10:16:46;;;;;;;13.60;7.97;;;14.10;99.90;;;;;;5091524;28;20044;-71
2022/10/10 10:19:31;;;;;;;14.90;7.38;;;14.20;99.90;;;;;;5092227;28;20370;-72
2022/10/10 10:21:56;;;;;;;11.73;7.15;;;14.20;99.90;;;;;;5082030;28;20046;-72
2022/10/10 10:24:28;;;;;;;12.57;8.18;;;14.20;99.90;;;;;;5092039;28;20111;-71
2022/10/10 10:26:54;;;;;;;13.05;8.25;;;14.30;99.90;;;;;;5088365;28;20036;-71
2022/10/10 10:29:28;;;;;;;13.23;8.15;;;14.30;99.90;;;;;;5092029;28;20032;-72
2022/10/10 10:32:26;;;;;;;12.35;7.05;;;14.40;99.90;;;;;;5088826;28;20050;-72
2022/10/10 10:35:04;;;;;;;11.02;7.88;;;14.50;99.90;;;;;;5104143;28;20044;-71
2022/10/10 10:38:07;;;;;;;14.52;7.65;;;14.50;99.90;;;;;;5092124;28;20044;-71
2022/10/10 10:40:37;;;;;;;14.25;8.05;;;14.50;99.90;;;;;;5086030;28;20039;-73
2022/10/10 10:43:41;;;;;;;13.95;8.18;;;14.50;99.90;;;;;;5091276;28;20040;-74
2022/10/10 10:46:35;;;;;;;10.52;7.80;;;14.70;99.90;;;;;;5090831;28;20048;-74
2022/10/10 10:49:18;;;;;;;14.68;7.97;;;14.60;99.90;;;;;;5091034;28;20043;-73
2022/10/10 10:51:53;;;;;;;13.80;8.05;;;14.70;99.90;;;;;;5092318;28;20040;-73
2022/10/10 10:54:32;;;;;;;15.05;7.80;;;14.70;99.90;;;;;;5092103;28;20100;-73
2022/10/10 10:57:22;;;;;;;9.80;7.70;;;14.80;99.90;;;;;;5091270;28;20048;-74
2022/10/10 11:00:12;;;;;;;9.85;6.40;;;14.90;99.90;;;;;;5092258;28;20036;-72
2022/10/10 11:03:18;;;;;;;11.02;6.35;;;14.90;99.90;;;;;;5091620;28;20040;-72
2022/10/10 11:06:20;;;;;;;10.82;6.50;;;15.10;99.90;;;;;;5013202;28;20542;-73
2022/10/10 11:09:15;;;;;;;12.40;5.85;;;15.10;99.90;;;;;;5016021;28;20049;-72
2022/10/10 11:11:58;;;;;;;7.50;5.40;;;15.30;99.90;;;;;;5077335;28;20051;-73
2022/10/10 11:14:33;;;;;;;15.32;7.07;;;15.30;99.90;;;;;;5070294;28;20481;-71
2022/10/10 11:17:39;;;;;;;12.30;5.85;;;15.50;99.90;;;;;;5072048;28;20032;-72
2022/10/10 11:20:20;;;;;;;12.40;5.93;;;15.60;99.90;;;;;;5069975;28;20044;-73
2022/10/10 11:23:06;;;;;;;14.20;6.40;;;15.50;99.90;;;;;;5071360;28;20045;-75
2022/10/10 11:25:53;;;;;;;10.20;5.97;;;15.50;99.90;;;;;;5071954;28;20036;-74
2022/10/10 11:28:34;;;;;;;9.80;5.75;;;15.30;99.90;;;;;;5083961;28;20044;-75
2022/10/10 11:31:10;;;;;;;10.57;6.50;;;15.00;99.90;;;;;;5073155;28;20086;-74
2022/10/10 11:33:42;;;;;;;8.50;7.32;;;15.00;99.90;;;;;;5089494;28;20043;-74
2022/10/10 11:36:21;;;;;;;12.57;6.70;;;14.90;99.90;;;;;;5087488;28;20044;-74
2022/10/10 11:38:50;;;;;;;9.77;6.22;;;14.70;99.90;;;;;;5091824;28;20104;-74
2022/10/10 11:41:24;;;;;;;10.70;6.00;;;14.60;99.90;;;;;;5073907;28;20040;-74
2022/10/10 11:43:59;;;;;;;11.15;6.43;;;14.60;99.90;;;;;;5090424;28;20062;-74
2022/10/10 11:46:54;;;;;;;9.90;5.78;;;14.50;99.90;;;;;;5073243;28;20139;-73
2022/10/10 11:49:27;;;;;;;8.02;5.75;;;14.30;99.90;;;;;;5088989;28;20127;-74
2022/10/10 11:51:55;;;;;;;10.10;6.32;;;14.30;99.90;;;;;;5089857;28;20447;-74
2022/10/10 11:54:46;;;;;;;10.43;6.55;;;14.30;99.90;;;;;;5087518;28;20528;-74
2022/10/10 11:57:18;;;;;;;9.95;6.50;;;14.30;99.90;;;;;;5092103;28;20040;-74
2022/10/10 11:59:52;;;;;;;11.23;6.80;;;14.10;99.90;;;;;;5095621;28;20036;-74
2022/10/10 12:02:22;;;;;;;13.00;7.88;;;14.10;99.90;;;;;;5094021;28;20105;-74
2022/10/10 12:04:48;;;;;;;17.20;8.65;;;13.90;99.90;;;;;;5094452;28;20044;-73
2022/10/10 12:07:24;;;;;;;14.00;8.85;;;13.90;99.90;;;;;;5094336;28;20114;-75
2022/10/10 12:10:05;;;;;;;15.82;8.43;;;13.90;99.90;;;;;;5095478;28;20032;-74
2022/10/10 12:12:48;;;;;;;15.65;8.85;;;13.80;99.90;;;;;;5094988;28;20485;-74
2022/10/10 12:15:29;;;;;;;13.37;9.30;;;13.80;99.90;;;;;;5093982;28;20051;-73
2022/10/10 12:17:56;;;;;;;14.70;8.73;;;13.70;99.90;;;;;;5095104;28;20493;-74
2022/10/10 12:20:25;;;;;;;14.45;9.15;;;13.60;99.90;;;;;;5093933;28;20047;-73
2022/10/10 12:23:09;;;;;;;17.40;9.63;;;13.70;99.90;;;;;;5093632;28;20051;-73
2022/10/10 12:25:41;;;;;;;14.52;9.20;;;13.80;99.90;;;;;;5095370;28;20039;-74
2022/10/10 12:28:12;;;;;;;17.52;9.30;;;13.70;99.90;;;;;;5094999;28;20044;-73
2022/10/10 12:31:03;;;;;;;13.13;9.10;;;13.80;99.90;;;;;;5094990;28;20134;-74
2022/10/10 12:33:32;;;;;;;13.10;8.63;;;13.60;99.90;;;;;;5092577;28;20063;-74
2022/10/10 12:36:15;;;;;;;17.60;8.95;;;13.60;99.90;;;;;;5093296;28;20052;-74
2022/10/10 12:39:08;;;;;;;13.10;10.00;;;13.80;99.90;;;;;;5094435;28;20039;-74
2022/10/10 12:41:54;;;;;;;13.98;8.63;;;13.90;99.90;;;;;;5093381;28;20048;-74
2022/10/10 12:44:24;;;;;;;14.57;9.68;;;13.70;99.90;;;;;;5094413;28;20390;-74
2022/10/10 12:47:13;;;;;;;16.63;11.40;;;13.90;99.90;;;;;;5094675;28;20044;-74
2022/10/10 12:49:52;;;;;;;17.25;10.18;;;14.00;99.90;;;;;;5086776;28;20055;-74
2022/10/10 12:52:36;;;;;;;17.05;10.80;;;13.80;99.90;;;;;;5093241;28;20044;-75
2022/10/10 12:55:08;;;;;;;19.77;11.18;;;13.80;99.90;;;;;;5093407;28;20076;-74
2022/10/10 12:57:41;;;;;;;16.42;9.98;;;14.00;99.90;;;;;;5094776;28;20043;-74
2022/10/10 13:00:19;;;;;;;20.67;12.07;;;14.00;99.90;;;;;;5094430;28;20043;-74
2022/10/10 13:03:10;;;;;;;17.80;11.90;;;13.80;99.90;;;;;;5091331;28;20119;-74
2022/10/10 13:05:39;;;;;;;16.90;11.13;;;13.70;99.90;;;;;;5094271;28;20070;-74